sensor_id;sensor_type;location;lat;lon;timestamp;pressure;altitude;pressure_sealevel;temperature;humidity
15884;BME280;8040;50.254;10.960;2023-08-17T00:01:38;98457.06;;;22.49;70.90
15884;BME280;8040;50.254;10.960;2023-08-17T00:04:05;98470.25;;;22.59;70.91
15884;BME280;8040;50.254;10.960;2023-08-17T00:06:30;98470.94;;;22.53;71.55
15884;BME280;8040;50.254;10.960;2023-08-17T00:08:56;98463.81;;;22.29;72.15
15884;BME280;8040;50.254;10.960;2023-08-17T00:11:21;98481.59;;;22.28;73.08
15884;BME280;8040;50.254;10.960;2023-08-17T00:13:47;98508.75;;;22.45;73.46
15884;BME280;8040;50.254;10.960;2023-08-17T00:16:12;98463.72;;;22.22;73.61
15884;BME280;8040;50.254;10.960;2023-08-17T00:18:38;98405.97;;;21.91;74.45
15884;BME280;8040;50.254;10.960;2023-08-17T00:21:03;98460.94;;;22.22;75.77
15884;BME280;8040;50.254;10.960;2023-08-17T00:23:29;98408.28;;;21.89;76.43
15884;BME280;8040;50.254;10.960;2023-08-17T00:25:54;98406.56;;;21.81;77.28
15884;BME280;8040;50.254;10.960;2023-08-17T00:28:20;98362.16;;;21.67;78.17
15884;BME280;8040;50.254;10.960;2023-08-17T00:30:45;98390.94;;;21.89;78.86
15884;BME280;8040;50.254;10.960;2023-08-17T00:33:10;98365.09;;;21.78;79.15
15884;BME280;8040;50.254;10.960;2023-08-17T00:35:36;98341.66;;;21.68;79.38
15884;BME280;8040;50.254;10.960;2023-08-17T00:38:01;98355.78;;;21.89;79.69
15884;BME280;8040;50.254;10.960;2023-08-17T00:40:26;98336.34;;;21.82;79.46
15884;BME280;8040;50.254;10.960;2023-08-17T00:42:52;98378.16;;;22.03;79.61
15884;BME280;8040;50.254;10.960;2023-08-17T00:45:18;98326.97;;;21.64;79.31
15884;BME280;8040;50.254;10.960;2023-08-17T00:50:30;98371.16;;;21.87;79.34
15884;BME280;8040;50.254;10.960;2023-08-17T00:52:56;98391.41;;;21.94;78.63
15884;BME280;8040;50.254;10.960;2023-08-17T00:55:22;98435.22;;;22.18;78.50
15884;BME280;8040;50.254;10.960;2023-08-17T00:57:49;98400.44;;;21.91;78.31
15884;BME280;8040;50.254;10.960;2023-08-17T01:00:16;98489.97;;;22.35;78.51
15884;BME280;8040;50.254;10.960;2023-08-17T01:02:43;98444.44;;;22.03;78.71
15884;BME280;8040;50.254;10.960;2023-08-17T01:05:08;98456.97;;;21.97;79.35
15884;BME280;8040;50.254;10.960;2023-08-17T01:07:34;98512.59;;;22.18;79.76
15884;BME280;8040;50.254;10.960;2023-08-17T01:10:03;98476.44;;;21.82;80.87
15884;BME280;8040;50.254;10.960;2023-08-17T01:12:30;98511.06;;;21.98;81.09
15884;BME280;8040;50.254;10.960;2023-08-17T01:15:10;98542.88;;;22.11;80.82
15884;BME280;8040;50.254;10.960;2023-08-17T01:20:40;98457.28;;;21.70;80.30
15884;BME280;8040;50.254;10.960;2023-08-17T01:23:07;98442.78;;;21.57;80.87
15884;BME280;8040;50.254;10.960;2023-08-17T01:25:33;98421.16;;;21.40;83.10
15884;BME280;8040;50.254;10.960;2023-08-17T01:28:02;98368.63;;;21.14;86.18
15884;BME280;8040;50.254;10.960;2023-08-17T01:31:19;98389.59;;;21.19;89.44
15884;BME280;8040;50.254;10.960;2023-08-17T01:33:40;98406.69;;;21.24;92.07
15884;BME280;8040;50.254;10.960;2023-08-17T01:36:36;98463.00;;;21.61;93.80
15884;BME280;8040;50.254;10.960;2023-08-17T01:39:04;98391.19;;;21.20;93.38
15884;BME280;8040;50.254;10.960;2023-08-17T01:41:30;98422.34;;;21.39;93.91
15884;BME280;8040;50.254;10.960;2023-08-17T01:43:57;98390.91;;;21.25;95.63
15884;BME280;8040;50.254;10.960;2023-08-17T01:46:24;98315.03;;;20.74;97.46
15884;BME280;8040;50.254;10.960;2023-08-17T01:48:50;98396.19;;;21.33;98.24
15884;BME280;8040;50.254;10.960;2023-08-17T01:51:20;98383.50;;;21.29;98.74
15884;BME280;8040;50.254;10.960;2023-08-17T01:53:45;98371.88;;;21.20;99.07
15884;BME280;8040;50.254;10.960;2023-08-17T01:56:11;98358.66;;;21.06;98.60
15884;BME280;8040;50.254;10.960;2023-08-17T01:58:36;98334.53;;;21.03;99.04
15884;BME280;8040;50.254;10.960;2023-08-17T02:01:02;98332.22;;;21.05;99.32
15884;BME280;8040;50.254;10.960;2023-08-17T02:03:27;98332.06;;;21.17;99.36
15884;BME280;8040;50.254;10.960;2023-08-17T02:05:56;98310.22;;;21.09;99.56
15884;BME280;8040;50.254;10.960;2023-08-17T02:08:22;98271.72;;;20.93;100.00
15884;BME280;8040;50.254;10.960;2023-08-17T02:10:47;98322.22;;;21.20;100.00
15884;BME280;8040;50.254;10.960;2023-08-17T02:13:14;98318.69;;;21.19;100.00
15884;BME280;8040;50.254;10.960;2023-08-17T02:15:40;98340.88;;;21.26;100.00
15884;BME280;8040;50.254;10.960;2023-08-17T02:18:05;98374.69;;;21.42;100.00
15884;BME280;8040;50.254;10.960;2023-08-17T02:20:31;98344.50;;;21.30;100.00
15884;BME280;8040;50.254;10.960;2023-08-17T02:22:56;98299.66;;;20.92;100.00
15884;BME280;8040;50.254;10.960;2023-08-17T02:25:22;98334.25;;;21.08;100.00
15884;BME280;8040;50.254;10.960;2023-08-17T02:27:47;98388.44;;;21.39;99.79
15884;BME280;8040;50.254;10.960;2023-08-17T02:30:13;98395.91;;;21.38;99.40
15884;BME280;8040;50.254;10.960;2023-08-17T02:32:38;98353.56;;;21.08;98.52
15884;BME280;8040;50.254;10.960;2023-08-17T02:35:10;98371.09;;;21.19;98.61
15884;BME280;8040;50.254;10.960;2023-08-17T02:37:35;98400.50;;;21.31;97.93
15884;BME280;8040;50.254;10.960;2023-08-17T02:40:01;98379.03;;;21.21;97.70
15884;BME280;8040;50.254;10.960;2023-08-17T02:42:26;98358.63;;;20.87;99.50
15884;BME280;8040;50.254;10.960;2023-08-17T02:44:52;98304.84;;;20.40;100.00
15884;BME280;8040;50.254;10.960;2023-08-17T02:47:17;98367.19;;;20.82;100.00
15884;BME280;8040;50.254;10.960;2023-08-17T02:49:42;98314.34;;;20.23;100.00
15884;BME280;8040;50.254;10.960;2023-08-17T02:52:08;98365.75;;;20.69;100.00
15884;BME280;8040;50.254;10.960;2023-08-17T02:54:36;98363.47;;;20.75;100.00
15884;BME280;8040;50.254;10.960;2023-08-17T02:57:03;98353.41;;;20.63;100.00
15884;BME280;8040;50.254;10.960;2023-08-17T02:59:29;98349.47;;;20.64;100.00
15884;BME280;8040;50.254;10.960;2023-08-17T03:01:54;98346.72;;;20.64;100.00
15884;BME280;8040;50.254;10.960;2023-08-17T03:04:20;98376.06;;;20.91;100.00
15884;BME280;8040;50.254;10.960;2023-08-17T03:06:45;98350.56;;;20.79;100.00
15884;BME280;8040;50.254;10.960;2023-08-17T03:09:10;98314.75;;;20.60;100.00
15884;BME280;8040;50.254;10.960;2023-08-17T03:11:36;98338.31;;;20.76;100.00
15884;BME280;8040;50.254;10.960;2023-08-17T03:14:01;98310.81;;;20.61;99.95
15884;BME280;8040;50.254;10.960;2023-08-17T03:16:27;98358.81;;;20.94;100.00
15884;BME280;8040;50.254;10.960;2023-08-17T03:18:58;98347.03;;;20.97;100.00
15884;BME280;8040;50.254;10.960;2023-08-17T03:21:23;98317.97;;;20.84;100.00
15884;BME280;8040;50.254;10.960;2023-08-17T03:23:49;98294.56;;;20.75;100.00
15884;BME280;8040;50.254;10.960;2023-08-17T03:26:15;98319.91;;;20.99;100.00
15884;BME280;8040;50.254;10.960;2023-08-17T03:28:40;98310.75;;;20.95;100.00
15884;BME280;8040;50.254;10.960;2023-08-17T03:31:09;98309.28;;;21.01;100.00
15884;BME280;8040;50.254;10.960;2023-08-17T03:33:37;98297.69;;;20.92;100.00
15884;BME280;8040;50.254;10.960;2023-08-17T03:36:03;98289.78;;;20.91;100.00
15884;BME280;8040;50.254;10.960;2023-08-17T03:38:29;98335.53;;;21.14;100.00
15884;BME280;8040;50.254;10.960;2023-08-17T03:40:57;98337.31;;;21.26;100.00
15884;BME280;8040;50.254;10.960;2023-08-17T03:43:22;98310.16;;;21.05;100.00
15884;BME280;8040;50.254;10.960;2023-08-17T03:45:48;98330.91;;;21.18;100.00
15884;BME280;8040;50.254;10.960;2023-08-17T03:48:13;98318.63;;;21.16;100.00
15884;BME280;8040;50.254;10.960;2023-08-17T03:50:41;98329.38;;;21.21;100.00
15884;BME280;8040;50.254;10.960;2023-08-17T03:53:06;98291.50;;;20.99;100.00
15884;BME280;8040;50.254;10.960;2023-08-17T03:55:31;98308.69;;;21.11;100.00
15884;BME280;8040;50.254;10.960;2023-08-17T03:57:57;98321.44;;;21.19;100.00
15884;BME280;8040;50.254;10.960;2023-08-17T04:00:22;98347.94;;;21.24;100.00
15884;BME280;8040;50.254;10.960;2023-08-17T04:02:48;98344.38;;;21.23;100.00
15884;BME280;8040;50.254;10.960;2023-08-17T04:05:13;98318.66;;;20.97;100.00
15884;BME280;8040;50.254;10.960;2023-08-17T04:07:39;98331.47;;;21.08;100.00
15884;BME280;8040;50.254;10.960;2023-08-17T04:10:08;98299.72;;;20.95;100.00
15884;BME280;8040;50.254;10.960;2023-08-17T04:12:34;98326.72;;;21.05;100.00
15884;BME280;8040;50.254;10.960;2023-08-17T04:14:59;98301.25;;;20.93;100.00
15884;BME280;8040;50.254;10.960;2023-08-17T04:17:24;98282.06;;;20.81;100.00
15884;BME280;8040;50.254;10.960;2023-08-17T04:19:50;98287.75;;;20.88;100.00
15884;BME280;8040;50.254;10.960;2023-08-17T04:22:15;98316.09;;;21.07;100.00
15884;BME280;8040;50.254;10.960;2023-08-17T04:24:41;98326.91;;;21.16;100.00
15884;BME280;8040;50.254;10.960;2023-08-17T04:27:06;98296.53;;;20.93;100.00
15884;BME280;8040;50.254;10.960;2023-08-17T04:29:32;98314.22;;;21.11;100.00
15884;BME280;8040;50.254;10.960;2023-08-17T04:31:58;98337.69;;;21.24;100.00
15884;BME280;8040;50.254;10.960;2023-08-17T04:34:24;98283.03;;;20.88;100.00
15884;BME280;8040;50.254;10.960;2023-08-17T04:36:49;98302.97;;;21.01;100.00
15884;BME280;8040;50.254;10.960;2023-08-17T04:39:15;98286.75;;;20.96;100.00
15884;BME280;8040;50.254;10.960;2023-08-17T04:41:40;98303.72;;;20.98;100.00
15884;BME280;8040;50.254;10.960;2023-08-17T04:44:06;98316.66;;;21.16;100.00
15884;BME280;8040;50.254;10.960;2023-08-17T04:46:35;98321.88;;;21.21;99.47
15884;BME280;8040;50.254;10.960;2023-08-17T04:49:01;98280.91;;;21.01;99.67
15884;BME280;8040;50.254;10.960;2023-08-17T04:51:26;98322.38;;;21.27;99.92
15884;BME280;8040;50.254;10.960;2023-08-17T04:53:52;98287.66;;;21.03;99.85
15884;BME280;8040;50.254;10.960;2023-08-17T04:56:18;98319.84;;;21.18;100.00
15884;BME280;8040;50.254;10.960;2023-08-17T04:58:43;98319.84;;;21.18;99.94
15884;BME280;8040;50.254;10.960;2023-08-17T05:01:09;98309.53;;;21.15;99.91
15884;BME280;8040;50.254;10.960;2023-08-17T05:03:35;98337.47;;;21.33;100.00
15884;BME280;8040;50.254;10.960;2023-08-17T05:06:01;98322.31;;;21.23;100.00
15884;BME280;8040;50.254;10.960;2023-08-17T05:08:26;98304.78;;;21.12;100.00
15884;BME280;8040;50.254;10.960;2023-08-17T05:10:52;98297.16;;;21.06;100.00
15884;BME280;8040;50.254;10.960;2023-08-17T05:13:17;98295.50;;;21.01;99.81
15884;BME280;8040;50.254;10.960;2023-08-17T05:15:43;98299.59;;;21.11;100.00
15884;BME280;8040;50.254;10.960;2023-08-17T05:18:08;98291.16;;;21.00;100.00
15884;BME280;8040;50.254;10.960;2023-08-17T05:20:33;98326.66;;;21.24;100.00
15884;BME280;8040;50.254;10.960;2023-08-17T05:22:59;98270.69;;;20.82;100.00
15884;BME280;8040;50.254;10.960;2023-08-17T05:25:24;98310.28;;;21.12;100.00
15884;BME280;8040;50.254;10.960;2023-08-17T05:27:51;98332.97;;;21.25;100.00
15884;BME280;8040;50.254;10.960;2023-08-17T05:30:17;98283.16;;;20.95;100.00
15884;BME280;8040;50.254;10.960;2023-08-17T05:32:43;98358.25;;;21.49;100.00
15884;BME280;8040;50.254;10.960;2023-08-17T05:35:08;98310.53;;;21.26;100.00
15884;BME280;8040;50.254;10.960;2023-08-17T05:37:33;98334.81;;;21.62;100.00
15884;BME280;8040;50.254;10.960;2023-08-17T05:39:59;98365.66;;;22.13;99.18
15884;BME280;8040;50.254;10.960;2023-08-17T05:42:24;98295.06;;;22.45;94.83
15884;BME280;8040;50.254;10.960;2023-08-17T05:44:50;98311.47;;;23.30;88.97
15884;BME280;8040;50.254;10.960;2023-08-17T05:47:15;98302.19;;;23.99;82.47
15884;BME280;8040;50.254;10.960;2023-08-17T05:49:43;98310.56;;;24.77;77.02
15884;BME280;8040;50.254;10.960;2023-08-17T05:54:52;98340.97;;;25.98;68.88
15884;BME280;8040;50.254;10.960;2023-08-17T05:57:18;98315.50;;;26.24;66.15
15884;BME280;8040;50.254;10.960;2023-08-17T05:59:43;98367.00;;;26.98;64.20
15884;BME280;8040;50.254;10.960;2023-08-17T06:02:09;98339.84;;;27.23;62.07
15884;BME280;8040;50.254;10.960;2023-08-17T06:04:34;98341.94;;;27.70;59.81
15884;BME280;8040;50.254;10.960;2023-08-17T06:06:59;98330.72;;;27.80;58.44
15884;BME280;8040;50.254;10.960;2023-08-17T06:09:25;98329.13;;;27.83;57.31
15884;BME280;8040;50.254;10.960;2023-08-17T06:11:50;98351.84;;;27.78;57.82
15884;BME280;8040;50.254;10.960;2023-08-17T06:14:16;98328.66;;;27.30;58.34
15884;BME280;8040;50.254;10.960;2023-08-17T06:16:41;98347.47;;;27.05;59.48
15884;BME280;8040;50.254;10.960;2023-08-17T06:19:07;98360.66;;;26.94;60.69
15884;BME280;8040;50.254;10.960;2023-08-17T06:21:32;98369.44;;;26.82;61.27
15884;BME280;8040;50.254;10.960;2023-08-17T06:23:57;98353.22;;;26.56;61.35
15884;BME280;8040;50.254;10.960;2023-08-17T06:26:23;98307.22;;;25.99;61.60
15884;BME280;8040;50.254;10.960;2023-08-17T06:28:48;98338.59;;;26.00;62.37
15884;BME280;8040;50.254;10.960;2023-08-17T06:31:17;98359.63;;;25.90;63.32
15884;BME280;8040;50.254;10.960;2023-08-17T06:33:42;98309.56;;;25.34;64.39
15884;BME280;8040;50.254;10.960;2023-08-17T06:36:08;98344.84;;;25.30;66.24
15884;BME280;8040;50.254;10.960;2023-08-17T06:38:33;98312.94;;;24.82;68.37
15884;BME280;8040;50.254;10.960;2023-08-17T06:41:03;98364.97;;;25.03;69.61
15884;BME280;8040;50.254;10.960;2023-08-17T06:43:33;98320.84;;;24.70;70.76
15884;BME280;8040;50.254;10.960;2023-08-17T06:45:59;98308.84;;;24.55;71.13
15884;BME280;8040;50.254;10.960;2023-08-17T06:48:26;98344.25;;;24.72;70.98
15884;BME280;8040;50.254;10.960;2023-08-17T06:50:51;98370.06;;;24.83;72.00
15884;BME280;8040;50.254;10.960;2023-08-17T06:53:16;98380.31;;;24.72;73.70
15884;BME280;8040;50.254;10.960;2023-08-17T06:55:42;98379.53;;;24.79;72.85
15884;BME280;8040;50.254;10.960;2023-08-17T06:58:08;98368.41;;;24.75;71.72
15884;BME280;8040;50.254;10.960;2023-08-17T07:00:33;98359.28;;;24.68;70.02
15884;BME280;8040;50.254;10.960;2023-08-17T07:03:01;98361.28;;;24.74;69.23
15884;BME280;8040;50.254;10.960;2023-08-17T07:05:26;98378.84;;;24.99;70.13
15884;BME280;8040;50.254;10.960;2023-08-17T07:07:52;98361.75;;;24.87;71.50
15884;BME280;8040;50.254;10.960;2023-08-17T07:10:18;98340.28;;;24.73;72.50
15884;BME280;8040;50.254;10.960;2023-08-17T07:12:44;98363.47;;;24.44;74.24
15884;BME280;8040;50.254;10.960;2023-08-17T07:15:09;98394.00;;;24.48;76.03
15884;BME280;8040;50.254;10.960;2023-08-17T07:17:41;98384.94;;;24.54;76.69
15884;BME280;8040;50.254;10.960;2023-08-17T07:20:07;98385.06;;;24.75;75.28
15884;BME280;8040;50.254;10.960;2023-08-17T07:22:33;98378.28;;;24.69;75.31
15884;BME280;8040;50.254;10.960;2023-08-17T07:24:58;98383.94;;;24.80;75.52
15884;BME280;8040;50.254;10.960;2023-08-17T07:27:25;98365.28;;;24.84;75.39
15884;BME280;8040;50.254;10.960;2023-08-17T07:29:50;98370.84;;;24.87;74.65
15884;BME280;8040;50.254;10.960;2023-08-17T07:32:16;98351.44;;;24.87;74.12
15884;BME280;8040;50.254;10.960;2023-08-17T07:34:41;98385.25;;;25.14;73.43
15884;BME280;8040;50.254;10.960;2023-08-17T07:37:07;98391.63;;;25.21;73.51
15884;BME280;8040;50.254;10.960;2023-08-17T07:39:34;98387.75;;;25.47;72.80
15884;BME280;8040;50.254;10.960;2023-08-17T07:41:59;98314.25;;;25.09;72.11
15884;BME280;8040;50.254;10.960;2023-08-17T07:44:25;98390.19;;;25.73;71.54
15884;BME280;8040;50.254;10.960;2023-08-17T07:46:50;98352.84;;;25.63;71.01
15884;BME280;8040;50.254;10.960;2023-08-17T07:49:15;98365.19;;;25.90;69.01
15884;BME280;8040;50.254;10.960;2023-08-17T07:51:41;98392.63;;;26.23;67.47
15884;BME280;8040;50.254;10.960;2023-08-17T07:54:07;98335.41;;;26.01;67.43
15884;BME280;8040;50.254;10.960;2023-08-17T07:56:32;98371.13;;;26.34;66.35
15884;BME280;8040;50.254;10.960;2023-08-17T07:58:58;98367.16;;;26.39;64.47
15884;BME280;8040;50.254;10.960;2023-08-17T08:01:23;98328.25;;;26.11;64.74
15884;BME280;8040;50.254;10.960;2023-08-17T08:03:49;98367.19;;;26.14;65.49
15884;BME280;8040;50.254;10.960;2023-08-17T08:06:15;98344.13;;;25.89;66.20
15884;BME280;8040;50.254;10.960;2023-08-17T08:08:40;98370.38;;;26.02;66.77
15884;BME280;8040;50.254;10.960;2023-08-17T08:11:06;98315.53;;;25.75;67.23
15884;BME280;8040;50.254;10.960;2023-08-17T08:13:32;98316.34;;;25.86;66.23
15884;BME280;8040;50.254;10.960;2023-08-17T08:16:01;98367.16;;;26.28;65.14
15884;BME280;8040;50.254;10.960;2023-08-17T08:18:26;98316.34;;;26.03;64.53
15884;BME280;8040;50.254;10.960;2023-08-17T08:20:51;98322.69;;;26.07;63.79
15884;BME280;8040;50.254;10.960;2023-08-17T08:23:18;98367.94;;;26.32;61.61
15884;BME280;8040;50.254;10.960;2023-08-17T08:25:44;98322.31;;;26.05;62.20
15884;BME280;8040;50.254;10.960;2023-08-17T08:28:21;98276.22;;;25.80;60.25
15884;BME280;8040;50.254;10.960;2023-08-17T08:30:47;98342.53;;;26.09;61.31
15884;BME280;8040;50.254;10.960;2023-08-17T08:33:15;98329.03;;;26.04;61.56
15884;BME280;8040;50.254;10.960;2023-08-17T08:35:41;98347.31;;;26.19;62.74
15884;BME280;8040;50.254;10.960;2023-08-17T08:38:06;98319.94;;;26.00;63.57
15884;BME280;8040;50.254;10.960;2023-08-17T08:40:32;98350.91;;;25.99;64.60
15884;BME280;8040;50.254;10.960;2023-08-17T08:42:58;98358.44;;;25.91;66.09
15884;BME280;8040;50.254;10.960;2023-08-17T08:45:27;98324.25;;;25.77;65.42
15884;BME280;8040;50.254;10.960;2023-08-17T08:47:53;98306.00;;;25.69;65.78
15884;BME280;8040;50.254;10.960;2023-08-17T08:50:20;98317.53;;;25.81;65.20
15884;BME280;8040;50.254;10.960;2023-08-17T08:52:53;98350.50;;;26.14;65.46
15884;BME280;8040;50.254;10.960;2023-08-17T08:55:23;98314.38;;;26.00;64.40
15884;BME280;8040;50.254;10.960;2023-08-17T08:57:52;98364.78;;;26.30;64.48
15884;BME280;8040;50.254;10.960;2023-08-17T09:00:19;98322.69;;;26.14;63.71
15884;BME280;8040;50.254;10.960;2023-08-17T09:02:45;98316.31;;;26.10;64.46
15884;BME280;8040;50.254;10.960;2023-08-17T09:05:11;98347.31;;;26.12;64.69
15884;BME280;8040;50.254;10.960;2023-08-17T09:07:40;98351.28;;;26.04;64.53
15884;BME280;8040;50.254;10.960;2023-08-17T09:10:09;98350.50;;;26.00;65.21
15884;BME280;8040;50.254;10.960;2023-08-17T09:12:34;98338.56;;;26.03;64.86
15884;BME280;8040;50.254;10.960;2023-08-17T09:15:00;98316.72;;;25.88;64.70
15884;BME280;8040;50.254;10.960;2023-08-17T09:17:26;98328.25;;;26.11;64.14
15884;BME280;8040;50.254;10.960;2023-08-17T09:19:52;98352.06;;;26.33;64.04
15884;BME280;8040;50.254;10.960;2023-08-17T09:22:40;98325.88;;;26.23;63.97
15884;BME280;8040;50.254;10.960;2023-08-17T09:25:07;98361.19;;;26.33;63.78
15884;BME280;8040;50.254;10.960;2023-08-17T09:27:32;98278.25;;;25.93;63.34
15884;BME280;8040;50.254;10.960;2023-08-17T09:30:05;98288.94;;;26.12;63.52
15884;BME280;8040;50.254;10.960;2023-08-17T09:32:32;98342.06;;;26.53;62.26
15884;BME280;8040;50.254;10.960;2023-08-17T09:35:00;98331.75;;;26.50;62.31
15884;BME280;8040;50.254;10.960;2023-08-17T09:37:26;98333.72;;;26.63;62.46
15884;BME280;8040;50.254;10.960;2023-08-17T09:39:53;98337.28;;;26.67;62.37
15884;BME280;8040;50.254;10.960;2023-08-17T09:42:20;98347.19;;;26.75;62.36
15884;BME280;8040;50.254;10.960;2023-08-17T09:44:46;98340.06;;;26.71;62.04
15884;BME280;8040;50.254;10.960;2023-08-17T09:47:12;98347.59;;;26.84;62.05
15884;BME280;8040;50.254;10.960;2023-08-17T09:49:38;98322.53;;;26.77;61.95
15884;BME280;8040;50.254;10.960;2023-08-17T09:52:04;98309.88;;;26.62;61.93
15884;BME280;8040;50.254;10.960;2023-08-17T09:54:30;98318.16;;;26.76;62.34
15884;BME280;8040;50.254;10.960;2023-08-17T09:56:57;98298.72;;;26.69;61.66
15884;BME280;8040;50.254;10.960;2023-08-17T09:59:23;98309.06;;;26.72;60.58
15884;BME280;8040;50.254;10.960;2023-08-17T10:01:50;98319.28;;;26.89;57.82
15884;BME280;8040;50.254;10.960;2023-08-17T10:04:20;98324.84;;;27.00;60.54
15884;BME280;8040;50.254;10.960;2023-08-17T10:06:48;98312.09;;;26.95;58.55
15884;BME280;8040;50.254;10.960;2023-08-17T10:09:20;98329.13;;;27.11;57.92
15884;BME280;8040;50.254;10.960;2023-08-17T10:11:49;98300.97;;;27.02;57.07
15884;BME280;8040;50.254;10.960;2023-08-17T10:14:28;98298.56;;;27.01;56.61
15884;BME280;8040;50.254;10.960;2023-08-17T10:17:02;98279.91;;;26.91;55.72
15884;BME280;8040;50.254;10.960;2023-08-17T10:19:51;98329.50;;;27.27;57.14
15884;BME280;8040;50.254;10.960;2023-08-17T10:22:41;98285.84;;;27.03;58.13
15884;BME280;8040;50.254;10.960;2023-08-17T10:25:11;98304.47;;;27.17;58.86
15884;BME280;8040;50.254;10.960;2023-08-17T10:27:40;98329.38;;;27.41;58.75
15884;BME280;8040;50.254;10.960;2023-08-17T10:30:08;98314.72;;;27.33;59.08
15884;BME280;8040;50.254;10.960;2023-08-17T10:32:34;98300.75;;;27.37;58.38
15884;BME280;8040;50.254;10.960;2023-08-17T10:35:00;98267.88;;;27.11;55.50
15884;BME280;8040;50.254;10.960;2023-08-17T10:37:26;98305.13;;;27.38;56.63
15884;BME280;8040;50.254;10.960;2023-08-17T10:39:51;98245.25;;;27.06;57.07
15884;BME280;8040;50.254;10.960;2023-08-17T10:42:34;98280.84;;;27.38;57.09
15884;BME280;8040;50.254;10.960;2023-08-17T10:45:24;98290.28;;;27.51;57.72
15884;BME280;8040;50.254;10.960;2023-08-17T10:47:47;98312.06;;;27.67;57.02
15884;BME280;8040;50.254;10.960;2023-08-17T10:50:24;98323.28;;;27.60;57.16
15884;BME280;8040;50.254;10.960;2023-08-17T10:52:50;98318.50;;;27.60;57.39
15884;BME280;8040;50.254;10.960;2023-08-17T10:55:36;98256.22;;;27.30;57.19
15884;BME280;8040;50.254;10.960;2023-08-17T10:58:02;98239.53;;;27.27;55.21
15884;BME280;8040;50.254;10.960;2023-08-17T11:00:36;98235.56;;;27.24;55.70
15884;BME280;8040;50.254;10.960;2023-08-17T11:03:09;98308.00;;;27.82;55.19
15884;BME280;8040;50.254;10.960;2023-08-17T11:05:42;98309.50;;;27.93;54.70
15884;BME280;8040;50.254;10.960;2023-08-17T11:11:06;98305.88;;;28.00;53.11
15884;BME280;8040;50.254;10.960;2023-08-17T11:13:35;98307.81;;;28.03;52.11
15884;BME280;8040;50.254;10.960;2023-08-17T11:16:02;98288.81;;;27.91;53.21
15884;BME280;8040;50.254;10.960;2023-08-17T11:18:28;98260.63;;;27.82;51.54
15884;BME280;8040;50.254;10.960;2023-08-17T11:20:54;98300.59;;;28.09;51.19
15884;BME280;8040;50.254;10.960;2023-08-17T11:23:20;98246.72;;;27.75;50.90
15884;BME280;8040;50.254;10.960;2023-08-17T11:25:46;98302.94;;;28.14;50.61
15884;BME280;8040;50.254;10.960;2023-08-17T11:28:12;98245.50;;;27.79;50.41
15884;BME280;8040;50.254;10.960;2023-08-17T11:30:39;98255.31;;;27.94;50.74
15884;BME280;8040;50.254;10.960;2023-08-17T11:33:06;98298.44;;;28.23;50.24
15884;BME280;8040;50.254;10.960;2023-08-17T11:35:32;98246.19;;;27.87;50.20
15884;BME280;8040;50.254;10.960;2023-08-17T11:37:59;98240.94;;;27.96;51.56
15884;BME280;8040;50.254;10.960;2023-08-17T11:40:26;98255.59;;;28.07;51.69
15884;BME280;8040;50.254;10.960;2023-08-17T11:42:52;98265.81;;;28.17;52.04
15884;BME280;8040;50.254;10.960;2023-08-17T11:45:18;98288.72;;;28.42;51.27
15884;BME280;8040;50.254;10.960;2023-08-17T11:47:44;98275.22;;;28.33;51.19
15884;BME280;8040;50.254;10.960;2023-08-17T11:50:11;98274.78;;;28.38;49.72
15884;BME280;8040;50.254;10.960;2023-08-17T11:52:37;98279.94;;;28.40;49.04
15884;BME280;8040;50.254;10.960;2023-08-17T11:55:05;98279.09;;;28.46;50.21
15884;BME280;8040;50.254;10.960;2023-08-17T11:57:35;98259.66;;;28.39;49.53
15884;BME280;8040;50.254;10.960;2023-08-17T12:00:18;98255.31;;;28.31;49.03
15884;BME280;8040;50.254;10.960;2023-08-17T12:02:51;98261.63;;;28.39;49.32
15884;BME280;8040;50.254;10.960;2023-08-17T12:05:24;98281.44;;;28.51;49.54
15884;BME280;8040;50.254;10.960;2023-08-17T12:07:55;98219.28;;;28.10;49.61
15884;BME280;8040;50.254;10.960;2023-08-17T12:10:21;98240.25;;;28.22;49.91
15884;BME280;8040;50.254;10.960;2023-08-17T12:12:50;98282.66;;;28.47;50.16
15884;BME280;8040;50.254;10.960;2023-08-17T12:15:16;98199.97;;;27.89;49.74
15884;BME280;8040;50.254;10.960;2023-08-17T12:17:49;98264.84;;;28.37;49.14
15884;BME280;8040;50.254;10.960;2023-08-17T12:20:16;98271.81;;;28.56;50.13
15884;BME280;8040;50.254;10.960;2023-08-17T12:22:42;98257.75;;;28.63;49.77
15884;BME280;8040;50.254;10.960;2023-08-17T12:25:09;98269.91;;;28.79;49.64
15884;BME280;8040;50.254;10.960;2023-08-17T12:27:35;98242.94;;;28.66;47.98
15884;BME280;8040;50.254;10.960;2023-08-17T12:30:01;98267.50;;;28.78;47.61
15884;BME280;8040;50.254;10.960;2023-08-17T12:32:26;98247.78;;;28.62;47.33
15884;BME280;8040;50.254;10.960;2023-08-17T12:34:52;98223.13;;;28.57;47.21
15884;BME280;8040;50.254;10.960;2023-08-17T12:37:19;98240.44;;;28.75;46.97
15884;BME280;8040;50.254;10.960;2023-08-17T12:39:45;98217.50;;;28.60;47.50
15884;BME280;8040;50.254;10.960;2023-08-17T12:42:18;98253.84;;;28.87;47.09
15884;BME280;8040;50.254;10.960;2023-08-17T12:44:43;98228.25;;;28.62;47.46
15884;BME280;8040;50.254;10.960;2023-08-17T12:47:09;98240.81;;;28.77;48.66
15884;BME280;8040;50.254;10.960;2023-08-17T12:49:35;98250.00;;;28.77;48.00
15884;BME280;8040;50.254;10.960;2023-08-17T12:52:01;98196.94;;;28.47;48.50
15884;BME280;8040;50.254;10.960;2023-08-17T12:54:26;98210.66;;;28.65;48.34
15884;BME280;8040;50.254;10.960;2023-08-17T12:56:52;98177.00;;;28.49;48.34
15884;BME280;8040;50.254;10.960;2023-08-17T12:59:17;98241.75;;;28.93;47.90
15884;BME280;8040;50.254;10.960;2023-08-17T13:01:43;98244.94;;;28.99;47.38
15884;BME280;8040;50.254;10.960;2023-08-17T13:04:08;98181.50;;;28.69;47.08
15884;BME280;8040;50.254;10.960;2023-08-17T13:06:34;98218.16;;;29.01;46.66
15884;BME280;8040;50.254;10.960;2023-08-17T13:08:59;98216.06;;;29.09;46.13